sensor_id;sensor_type;location;lat;lon;timestamp;pressure;altitude;pressure_sealevel;temperature;humidity
22206;BME280;11272;50.104;8.754;2023-05-09T00:01:16;100874.31;;;17.43;72.66
22206;BME280;11272;50.104;8.754;2023-05-09T00:03:42;100868.16;;;17.41;72.81
22206;BME280;11272;50.104;8.754;2023-05-09T00:06:09;100869.88;;;17.42;73.02
22206;BME280;11272;50.104;8.754;2023-05-09T00:08:35;100877.00;;;17.43;73.06
22206;BME280;11272;50.104;8.754;2023-05-09T00:11:05;100865.75;;;17.35;73.06
22206;BME280;11272;50.104;8.754;2023-05-09T00:13:30;100865.84;;;17.32;73.16
22206;BME280;11272;50.104;8.754;2023-05-09T00:15:57;100869.50;;;17.31;73.22
22206;BME280;11272;50.104;8.754;2023-05-09T00:18:22;100862.44;;;17.28;73.48
22206;BME280;11272;50.104;8.754;2023-05-09T00:20:49;100863.31;;;17.29;73.39
22206;BME280;11272;50.104;8.754;2023-05-09T00:23:15;100854.38;;;17.28;73.40
22206;BME280;11272;50.104;8.754;2023-05-09T00:25:41;100854.53;;;17.25;73.58
22206;BME280;11272;50.104;8.754;2023-05-09T00:28:07;100850.09;;;17.24;73.77
22206;BME280;11272;50.104;8.754;2023-05-09T00:30:33;100842.03;;;17.24;73.60
22206;BME280;11272;50.104;8.754;2023-05-09T00:32:58;100845.66;;;17.23;73.69
22206;BME280;11272;50.104;8.754;2023-05-09T00:35:24;100840.28;;;17.23;73.75
22206;BME280;11272;50.104;8.754;2023-05-09T00:37:49;100846.47;;;17.25;73.77
22206;BME280;11272;50.104;8.754;2023-05-09T00:40:15;100835.84;;;17.22;74.03
22206;BME280;11272;50.104;8.754;2023-05-09T00:42:40;100848.34;;;17.23;73.86
22206;BME280;11272;50.104;8.754;2023-05-09T00:45:07;100841.09;;;17.25;74.01
22206;BME280;11272;50.104;8.754;2023-05-09T00:47:33;100830.38;;;17.25;73.70
22206;BME280;11272;50.104;8.754;2023-05-09T00:50:00;100829.53;;;17.23;73.94
22206;BME280;11272;50.104;8.754;2023-05-09T00:52:26;100825.06;;;17.23;73.96
22206;BME280;11272;50.104;8.754;2023-05-09T00:54:52;100818.81;;;17.23;73.86
22206;BME280;11272;50.104;8.754;2023-05-09T00:57:18;100817.94;;;17.22;74.04
22206;BME280;11272;50.104;8.754;2023-05-09T00:59:43;100823.28;;;17.22;73.88
22206;BME280;11272;50.104;8.754;2023-05-09T01:02:09;100812.72;;;17.19;73.92
22206;BME280;11272;50.104;8.754;2023-05-09T01:04:36;100808.22;;;17.20;74.18
22206;BME280;11272;50.104;8.754;2023-05-09T01:15:26;100797.59;;;17.17;74.45
22206;BME280;11272;50.104;8.754;2023-05-09T01:18:10;100807.50;;;17.15;74.47
22206;BME280;11272;50.104;8.754;2023-05-09T01:20:44;100802.28;;;17.12;74.73
22206;BME280;11272;50.104;8.754;2023-05-09T01:31:40;100792.47;;;17.11;74.71
22206;BME280;11272;50.104;8.754;2023-05-09T01:34:10;100795.09;;;17.12;74.53
22206;BME280;11272;50.104;8.754;2023-05-09T01:36:39;100789.78;;;17.11;74.68
22206;BME280;11272;50.104;8.754;2023-05-09T01:39:06;100788.91;;;17.10;74.69
22206;BME280;11272;50.104;8.754;2023-05-09T01:41:36;100787.19;;;17.09;74.74
22206;BME280;11272;50.104;8.754;2023-05-09T01:44:05;100796.03;;;17.11;74.61
22206;BME280;11272;50.104;8.754;2023-05-09T01:46:31;100793.34;;;17.11;74.54
22206;BME280;11272;50.104;8.754;2023-05-09T01:48:58;100792.47;;;17.11;74.57
22206;BME280;11272;50.104;8.754;2023-05-09T01:51:29;100786.38;;;17.07;74.71
22206;BME280;11272;50.104;8.754;2023-05-09T01:53:59;100787.19;;;17.09;74.77
22206;BME280;11272;50.104;8.754;2023-05-09T01:56:26;100776.47;;;17.09;74.74
22206;BME280;11272;50.104;8.754;2023-05-09T01:58:52;100774.63;;;17.10;74.91
22206;BME280;11272;50.104;8.754;2023-05-09T02:01:21;100770.13;;;17.10;74.81
22206;BME280;11272;50.104;8.754;2023-05-09T02:03:50;100776.38;;;17.11;74.34
22206;BME280;11272;50.104;8.754;2023-05-09T02:06:19;100770.28;;;17.07;74.41
22206;BME280;11272;50.104;8.754;2023-05-09T02:08:47;100774.09;;;17.02;74.47
22206;BME280;11272;50.104;8.754;2023-05-09T02:11:13;100767.91;;;17.00;75.08
22206;BME280;11272;50.104;8.754;2023-05-09T02:13:38;100761.75;;;16.98;74.71
22206;BME280;11272;50.104;8.754;2023-05-09T02:16:05;100760.94;;;16.96;74.56
22206;BME280;11272;50.104;8.754;2023-05-09T02:18:32;100759.31;;;16.92;74.81
22206;BME280;11272;50.104;8.754;2023-05-09T02:21:00;100763.00;;;16.89;74.74
22206;BME280;11272;50.104;8.754;2023-05-09T02:23:26;100757.81;;;16.84;74.79
22206;BME280;11272;50.104;8.754;2023-05-09T02:25:52;100763.34;;;16.81;74.64
22206;BME280;11272;50.104;8.754;2023-05-09T02:28:20;100764.31;;;16.79;74.92
22206;BME280;11272;50.104;8.754;2023-05-09T02:30:48;100763.44;;;16.78;75.17
22206;BME280;11272;50.104;8.754;2023-05-09T02:33:14;100767.25;;;16.73;75.34
22206;BME280;11272;50.104;8.754;2023-05-09T02:35:43;100766.47;;;16.71;75.42
22206;BME280;11272;50.104;8.754;2023-05-09T02:38:11;100761.34;;;16.65;75.33
22206;BME280;11272;50.104;8.754;2023-05-09T02:40:38;100755.25;;;16.61;75.26
22206;BME280;11272;50.104;8.754;2023-05-09T02:43:04;100751.75;;;16.58;75.49
22206;BME280;11272;50.104;8.754;2023-05-09T02:45:29;100752.78;;;16.55;75.55
22206;BME280;11272;50.104;8.754;2023-05-09T02:47:55;100751.13;;;16.51;75.53
22206;BME280;11272;50.104;8.754;2023-05-09T02:50:24;100748.72;;;16.45;76.00
22206;BME280;11272;50.104;8.754;2023-05-09T02:52:49;100752.44;;;16.41;75.89
22206;BME280;11272;50.104;8.754;2023-05-09T02:55:15;100749.84;;;16.39;76.18
22206;BME280;11272;50.104;8.754;2023-05-09T02:57:41;100742.72;;;16.38;76.60
22206;BME280;11272;50.104;8.754;2023-05-09T03:00:08;100739.13;;;16.39;76.29
22206;BME280;11272;50.104;8.754;2023-05-09T03:02:35;100738.25;;;16.39;76.55
22206;BME280;11272;50.104;8.754;2023-05-09T03:05:02;100732.06;;;16.37;76.28
22206;BME280;11272;50.104;8.754;2023-05-09T03:07:29;100736.59;;;16.35;76.46
22206;BME280;11272;50.104;8.754;2023-05-09T03:09:55;100733.13;;;16.33;76.16
22206;BME280;11272;50.104;8.754;2023-05-09T03:12:21;100740.41;;;16.29;76.26
22206;BME280;11272;50.104;8.754;2023-05-09T03:14:49;100743.22;;;16.26;76.30
22206;BME280;11272;50.104;8.754;2023-05-09T03:17:15;100737.91;;;16.25;76.44
22206;BME280;11272;50.104;8.754;2023-05-09T03:19:46;100743.25;;;16.25;76.33
22206;BME280;11272;50.104;8.754;2023-05-09T03:22:13;100731.75;;;16.23;76.33
22206;BME280;11272;50.104;8.754;2023-05-09T03:24:46;100739.91;;;16.20;76.07
22206;BME280;11272;50.104;8.754;2023-05-09T03:27:11;100728.38;;;16.18;76.11
22206;BME280;11272;50.104;8.754;2023-05-09T03:29:37;100731.13;;;16.16;76.12
22206;BME280;11272;50.104;8.754;2023-05-09T03:32:04;100727.63;;;16.14;76.13
22206;BME280;11272;50.104;8.754;2023-05-09T03:34:30;100732.09;;;16.14;76.07
22206;BME280;11272;50.104;8.754;2023-05-09T03:36:57;100725.00;;;16.13;76.09
22206;BME280;11272;50.104;8.754;2023-05-09T03:39:23;100719.72;;;16.11;76.24
22206;BME280;11272;50.104;8.754;2023-05-09T03:41:53;100718.84;;;16.11;76.05
22206;BME280;11272;50.104;8.754;2023-05-09T03:44:19;100718.78;;;16.12;76.27
22206;BME280;11272;50.104;8.754;2023-05-09T03:46:45;100717.91;;;16.12;75.94
22206;BME280;11272;50.104;8.754;2023-05-09T03:49:11;100717.09;;;16.10;75.90
22206;BME280;11272;50.104;8.754;2023-05-09T03:51:37;100714.53;;;16.07;75.74
22206;BME280;11272;50.104;8.754;2023-05-09T03:54:07;100716.38;;;16.05;76.07
22206;BME280;11272;50.104;8.754;2023-05-09T03:56:34;100718.28;;;16.03;75.79
22206;BME280;11272;50.104;8.754;2023-05-09T03:59:00;100711.16;;;16.02;75.99
22206;BME280;11272;50.104;8.754;2023-05-09T04:01:26;100707.66;;;15.99;76.12
22206;BME280;11272;50.104;8.754;2023-05-09T04:03:54;100708.59;;;15.98;75.82
22206;BME280;11272;50.104;8.754;2023-05-09T04:06:22;100702.34;;;15.98;75.91
22206;BME280;11272;50.104;8.754;2023-05-09T04:08:48;100711.28;;;15.98;75.98
22206;BME280;11272;50.104;8.754;2023-05-09T04:11:14;100706.84;;;15.97;76.04
22206;BME280;11272;50.104;8.754;2023-05-09T04:13:43;100696.22;;;15.96;76.16
22206;BME280;11272;50.104;8.754;2023-05-09T04:16:29;100706.03;;;15.95;75.94
22206;BME280;11272;50.104;8.754;2023-05-09T04:18:55;100702.44;;;15.96;76.32
22206;BME280;11272;50.104;8.754;2023-05-09T04:21:21;100714.03;;;15.97;75.97
22206;BME280;11272;50.104;8.754;2023-05-09T04:23:49;100705.03;;;15.98;76.25
22206;BME280;11272;50.104;8.754;2023-05-09T04:26:20;100716.53;;;16.02;76.32
22206;BME280;11272;50.104;8.754;2023-05-09T04:28:51;100720.78;;;16.07;76.16
22206;BME280;11272;50.104;8.754;2023-05-09T04:31:17;100712.59;;;16.10;76.12
22206;BME280;11272;50.104;8.754;2023-05-09T04:33:47;100719.56;;;16.14;76.73
22206;BME280;11272;50.104;8.754;2023-05-09T04:36:13;100712.06;;;16.24;76.45
22206;BME280;11272;50.104;8.754;2023-05-09T04:38:40;100719.72;;;16.33;76.51
22206;BME280;11272;50.104;8.754;2023-05-09T04:41:10;100713.16;;;16.40;76.54
22206;BME280;11272;50.104;8.754;2023-05-09T04:43:36;100719.09;;;16.48;76.39
22206;BME280;11272;50.104;8.754;2023-05-09T04:46:02;100712.56;;;16.55;76.58
22206;BME280;11272;50.104;8.754;2023-05-09T04:48:28;100711.38;;;16.62;76.42
22206;BME280;11272;50.104;8.754;2023-05-09T04:50:54;100706.69;;;16.67;76.40
22206;BME280;11272;50.104;8.754;2023-05-09T04:53:20;100701.16;;;16.72;76.33
22206;BME280;11272;50.104;8.754;2023-05-09T04:55:46;100708.19;;;16.74;76.19
22206;BME280;11272;50.104;8.754;2023-05-09T04:58:12;100691.16;;;16.75;76.00
22206;BME280;11272;50.104;8.754;2023-05-09T05:00:38;100689.28;;;16.77;75.93
22206;BME280;11272;50.104;8.754;2023-05-09T05:03:06;100686.47;;;16.80;75.72
22206;BME280;11272;50.104;8.754;2023-05-09T05:05:31;100684.66;;;16.81;75.61
22206;BME280;11272;50.104;8.754;2023-05-09T05:07:57;100681.84;;;16.84;75.58
22206;BME280;11272;50.104;8.754;2023-05-09T05:10:29;100680.59;;;16.93;75.50
22206;BME280;11272;50.104;8.754;2023-05-09T05:13:02;100682.13;;;16.98;75.55
22206;BME280;11272;50.104;8.754;2023-05-09T05:15:28;100672.72;;;17.08;75.50
22206;BME280;11272;50.104;8.754;2023-05-09T05:17:54;100676.59;;;17.21;75.49
22206;BME280;11272;50.104;8.754;2023-05-09T05:20:26;100668.81;;;17.36;75.36
22206;BME280;11272;50.104;8.754;2023-05-09T05:22:51;100666.56;;;17.45;75.28
22206;BME280;11272;50.104;8.754;2023-05-09T05:25:19;100663.63;;;17.51;74.82
22206;BME280;11272;50.104;8.754;2023-05-09T05:27:48;100663.25;;;17.59;74.84
22206;BME280;11272;50.104;8.754;2023-05-09T05:30:14;100670.41;;;17.58;74.47
22206;BME280;11272;50.104;8.754;2023-05-09T05:32:41;100671.56;;;17.53;74.65
22206;BME280;11272;50.104;8.754;2023-05-09T05:35:09;100668.56;;;17.60;74.54
22206;BME280;11272;50.104;8.754;2023-05-09T05:37:39;100668.56;;;17.60;74.53
22206;BME280;11272;50.104;8.754;2023-05-09T05:40:07;100670.59;;;17.74;74.53
22206;BME280;11272;50.104;8.754;2023-05-09T05:42:35;100666.25;;;17.90;74.38
22206;BME280;11272;50.104;8.754;2023-05-09T05:45:01;100664.09;;;17.98;73.69
22206;BME280;11272;50.104;8.754;2023-05-09T05:47:33;100666.38;;;18.06;73.50
22206;BME280;11272;50.104;8.754;2023-05-09T05:50:00;100659.72;;;18.15;73.40
22206;BME280;11272;50.104;8.754;2023-05-09T05:52:26;100662.81;;;18.24;73.25
22206;BME280;11272;50.104;8.754;2023-05-09T05:54:53;100669.88;;;18.44;73.35
22206;BME280;11272;50.104;8.754;2023-05-09T05:57:19;100664.88;;;18.55;72.91
22206;BME280;11272;50.104;8.754;2023-05-09T05:59:48;100656.47;;;18.61;72.64
22206;BME280;11272;50.104;8.754;2023-05-09T06:02:18;100654.19;;;18.71;72.47
22206;BME280;11272;50.104;8.754;2023-05-09T06:04:44;100662.66;;;18.80;72.01
22206;BME280;11272;50.104;8.754;2023-05-09T06:07:11;100659.81;;;18.83;71.64
22206;BME280;11272;50.104;8.754;2023-05-09T06:09:38;100656.09;;;18.86;71.67
22206;BME280;11272;50.104;8.754;2023-05-09T06:12:07;100651.13;;;18.96;71.80
22206;BME280;11272;50.104;8.754;2023-05-09T06:14:39;100648.00;;;19.20;71.54
22206;BME280;11272;50.104;8.754;2023-05-09T06:17:07;100655.56;;;19.47;71.02
22206;BME280;11272;50.104;8.754;2023-05-09T06:19:34;100641.50;;;19.73;70.53
22206;BME280;11272;50.104;8.754;2023-05-09T06:21:59;100641.38;;;19.92;70.27
22206;BME280;11272;50.104;8.754;2023-05-09T06:24:33;100641.25;;;20.25;69.63
22206;BME280;11272;50.104;8.754;2023-05-09T06:27:04;100641.59;;;20.50;68.92
22206;BME280;11272;50.104;8.754;2023-05-09T06:29:30;100635.06;;;20.54;68.56
22206;BME280;11272;50.104;8.754;2023-05-09T06:31:56;100635.97;;;20.69;68.30
22206;BME280;11272;50.104;8.754;2023-05-09T06:34:21;100635.88;;;20.70;67.51
22206;BME280;11272;50.104;8.754;2023-05-09T06:36:47;100622.53;;;20.83;67.75
22206;BME280;11272;50.104;8.754;2023-05-09T06:39:15;100623.63;;;21.09;66.69
22206;BME280;11272;50.104;8.754;2023-05-09T06:41:40;100627.69;;;21.16;66.18
22206;BME280;11272;50.104;8.754;2023-05-09T06:44:09;100614.16;;;21.01;65.83
22206;BME280;11272;50.104;8.754;2023-05-09T06:46:34;100615.91;;;21.02;65.40
22206;BME280;11272;50.104;8.754;2023-05-09T06:49:00;100613.66;;;20.95;64.85
22206;BME280;11272;50.104;8.754;2023-05-09T06:51:30;100606.41;;;20.81;65.11
22206;BME280;11272;50.104;8.754;2023-05-09T06:53:59;100604.28;;;20.86;64.97
22206;BME280;11272;50.104;8.754;2023-05-09T06:56:25;100599.56;;;20.90;64.17
22206;BME280;11272;50.104;8.754;2023-05-09T06:58:51;100594.94;;;20.78;63.45
22206;BME280;11272;50.104;8.754;2023-05-09T07:01:27;100599.84;;;20.71;64.09
22206;BME280;11272;50.104;8.754;2023-05-09T07:03:52;100600.34;;;20.78;63.80
22206;BME280;11272;50.104;8.754;2023-05-09T07:06:20;100590.94;;;20.69;63.28
22206;BME280;11272;50.104;8.754;2023-05-09T07:08:48;100595.38;;;20.56;63.98
22206;BME280;11272;50.104;8.754;2023-05-09T07:11:13;100596.66;;;20.79;64.10
22206;BME280;11272;50.104;8.754;2023-05-09T07:13:39;100586.38;;;21.14;63.96
22206;BME280;11272;50.104;8.754;2023-05-09T07:16:05;100586.22;;;21.31;63.52
22206;BME280;11272;50.104;8.754;2023-05-09T07:18:30;100577.19;;;21.59;63.20
22206;BME280;11272;50.104;8.754;2023-05-09T07:20:59;100583.25;;;21.76;62.51
22206;BME280;11272;50.104;8.754;2023-05-09T07:23:24;100581.91;;;21.83;62.52
22206;BME280;11272;50.104;8.754;2023-05-09T07:25:57;100573.00;;;21.96;61.90
22206;BME280;11272;50.104;8.754;2023-05-09T07:28:23;100561.31;;;22.22;61.97
22206;BME280;11272;50.104;8.754;2023-05-09T07:30:49;100563.53;;;22.42;61.30
22206;BME280;11272;50.104;8.754;2023-05-09T07:33:14;100551.69;;;22.83;61.01
22206;BME280;11272;50.104;8.754;2023-05-09T07:35:40;100547.13;;;23.21;60.32
22206;BME280;11272;50.104;8.754;2023-05-09T07:38:05;100556.00;;;23.36;59.28
22206;BME280;11272;50.104;8.754;2023-05-09T07:40:34;100546.78;;;23.38;58.90
22206;BME280;11272;50.104;8.754;2023-05-09T07:43:01;100538.84;;;23.35;58.62
22206;BME280;11272;50.104;8.754;2023-05-09T07:45:26;100541.72;;;23.34;58.10
22206;BME280;11272;50.104;8.754;2023-05-09T07:47:52;100533.03;;;23.29;57.74
22206;BME280;11272;50.104;8.754;2023-05-09T07:50:21;100533.25;;;23.38;57.54
22206;BME280;11272;50.104;8.754;2023-05-09T07:52:50;100528.91;;;23.48;56.78
22206;BME280;11272;50.104;8.754;2023-05-09T07:55:17;100532.78;;;23.44;56.79
22206;BME280;11272;50.104;8.754;2023-05-09T07:57:42;100522.44;;;23.13;56.83
22206;BME280;11272;50.104;8.754;2023-05-09T08:00:10;100521.47;;;22.89;57.06
22206;BME280;11272;50.104;8.754;2023-05-09T08:02:39;100510.19;;;22.82;57.00
22206;BME280;11272;50.104;8.754;2023-05-09T08:05:05;100520.16;;;22.82;56.77
22206;BME280;11272;50.104;8.754;2023-05-09T08:07:32;100528.06;;;22.59;57.13
22206;BME280;11272;50.104;8.754;2023-05-09T08:09:57;100522.94;;;22.42;57.01
22206;BME280;11272;50.104;8.754;2023-05-09T08:12:23;100524.72;;;22.29;56.64
22206;BME280;11272;50.104;8.754;2023-05-09T08:14:48;100519.31;;;22.16;56.66
22206;BME280;11272;50.104;8.754;2023-05-09T08:17:14;100519.09;;;21.93;56.63
22206;BME280;11272;50.104;8.754;2023-05-09T08:19:43;100515.91;;;21.59;57.29
22206;BME280;11272;50.104;8.754;2023-05-09T08:22:17;100515.06;;;21.45;57.32
22206;BME280;11272;50.104;8.754;2023-05-09T08:24:43;100510.75;;;21.28;57.55
22206;BME280;11272;50.104;8.754;2023-05-09T08:27:10;100510.19;;;21.23;57.65
22206;BME280;11272;50.104;8.754;2023-05-09T08:29:37;100505.75;;;21.08;57.87
22206;BME280;11272;50.104;8.754;2023-05-09T08:32:03;100501.31;;;20.92;58.10
22206;BME280;11272;50.104;8.754;2023-05-09T08:34:31;100502.19;;;20.93;58.09
22206;BME280;11272;50.104;8.754;2023-05-09T08:36:59;100502.19;;;20.93;58.37
22206;BME280;11272;50.104;8.754;2023-05-09T08:39:27;100501.09;;;20.95;58.34
22206;BME280;11272;50.104;8.754;2023-05-09T08:41:57;100505.66;;;21.09;58.32
22206;BME280;11272;50.104;8.754;2023-05-09T08:44:22;100500.16;;;20.96;58.47
22206;BME280;11272;50.104;8.754;2023-05-09T08:46:51;100493.41;;;21.04;58.80
22206;BME280;11272;50.104;8.754;2023-05-09T08:49:19;100481.00;;;21.15;58.76
22206;BME280;11272;50.104;8.754;2023-05-09T08:51:47;100481.50;;;21.34;58.47
22206;BME280;11272;50.104;8.754;2023-05-09T08:54:13;100480.19;;;21.54;58.44
22206;BME280;11272;50.104;8.754;2023-05-09T08:56:41;100480.19;;;21.68;58.01
22206;BME280;11272;50.104;8.754;2023-05-09T08:59:09;100475.25;;;21.88;58.03
22206;BME280;11272;50.104;8.754;2023-05-09T09:01:37;100470.78;;;22.01;58.13
22206;BME280;11272;50.104;8.754;2023-05-09T09:04:05;100463.22;;;22.06;58.11
22206;BME280;11272;50.104;8.754;2023-05-09T09:06:34;100470.47;;;22.05;58.04
22206;BME280;11272;50.104;8.754;2023-05-09T09:09:04;100459.53;;;22.07;58.05
22206;BME280;11272;50.104;8.754;2023-05-09T09:11:33;100463.22;;;22.06;57.63
22206;BME280;11272;50.104;8.754;2023-05-09T09:14:10;100458.00;;;22.03;57.58
22206;BME280;11272;50.104;8.754;2023-05-09T09:16:37;100455.13;;;21.92;57.10
22206;BME280;11272;50.104;8.754;2023-05-09T09:19:03;100452.41;;;21.79;57.48
22206;BME280;11272;50.104;8.754;2023-05-09T09:21:36;100452.69;;;21.74;57.30
22206;BME280;11272;50.104;8.754;2023-05-09T09:24:02;100445.69;;;21.72;57.41
22206;BME280;11272;50.104;8.754;2023-05-09T09:26:31;100451.19;;;21.70;57.31
22206;BME280;11272;50.104;8.754;2023-05-09T09:28:59;100462.13;;;21.69;57.32
22206;BME280;11272;50.104;8.754;2023-05-09T09:31:30;100449.50;;;21.55;57.59
22206;BME280;11272;50.104;8.754;2023-05-09T09:34:00;100445.28;;;21.51;57.54
22206;BME280;11272;50.104;8.754;2023-05-09T09:36:30;100445.69;;;21.45;57.65
22206;BME280;11272;50.104;8.754;2023-05-09T09:39:02;100444.34;;;21.38;57.81
22206;BME280;11272;50.104;8.754;2023-05-09T09:41:37;100443.22;;;21.28;58.05
22206;BME280;11272;50.104;8.754;2023-05-09T09:44:14;100435.28;;;21.39;58.45
22206;BME280;11272;50.104;8.754;2023-05-09T09:46:44;100436.41;;;21.49;58.25
22206;BME280;11272;50.104;8.754;2023-05-09T09:49:15;100435.69;;;21.60;58.01
22206;BME280;11272;50.104;8.754;2023-05-09T09:51:53;100422.84;;;21.63;58.00
22206;BME280;11272;50.104;8.754;2023-05-09T09:54:19;100418.50;;;21.61;57.75
22206;BME280;11272;50.104;8.754;2023-05-09T09:56:49;100406.16;;;21.57;57.67
22206;BME280;11272;50.104;8.754;2023-05-09T09:59:20;100402.69;;;21.55;57.65
22206;BME280;11272;50.104;8.754;2023-05-09T10:01:58;100403.88;;;21.51;57.58
22206;BME280;11272;50.104;8.754;2023-05-09T10:04:25;100405.25;;;21.43;57.63
22206;BME280;11272;50.104;8.754;2023-05-09T10:07:00;100400.16;;;21.39;57.60
22206;BME280;11272;50.104;8.754;2023-05-09T10:09:28;100402.13;;;21.23;57.67
22206;BME280;11272;50.104;8.754;2023-05-09T10:11:55;100392.41;;;21.06;58.12
22206;BME280;11272;50.104;8.754;2023-05-09T10:14:24;100391.66;;;21.04;58.36
22206;BME280;11272;50.104;8.754;2023-05-09T10:16:53;100397.44;;;20.98;58.45
22206;BME280;11272;50.104;8.754;2023-05-09T10:19:20;100387.03;;;20.92;58.44
22206;BME280;11272;50.104;8.754;2023-05-09T10:21:52;100385.22;;;20.92;58.63
22206;BME280;11272;50.104;8.754;2023-05-09T10:24:25;100376.41;;;20.89;58.84
22206;BME280;11272;50.104;8.754;2023-05-09T10:26:56;100379.50;;;20.97;59.01
22206;BME280;11272;50.104;8.754;2023-05-09T10:29:26;100373.50;;;21.06;58.75
22206;BME280;11272;50.104;8.754;2023-05-09T10:31:58;100365.09;;;21.11;58.56
22206;BME280;11272;50.104;8.754;2023-05-09T10:34:25;100367.22;;;21.06;58.79
22206;BME280;11272;50.104;8.754;2023-05-09T10:36:52;100356.13;;;21.10;58.80
22206;BME280;11272;50.104;8.754;2023-05-09T10:39:18;100349.84;;;21.24;58.92
22206;BME280;11272;50.104;8.754;2023-05-09T10:41:45;100348.63;;;21.55;58.81
22206;BME280;11272;50.104;8.754;2023-05-09T10:44:14;100357.00;;;21.77;58.56
22206;BME280;11272;50.104;8.754;2023-05-09T10:46:43;100346.00;;;21.93;58.42
22206;BME280;11272;50.104;8.754;2023-05-09T10:49:09;100334.69;;;22.25;58.11
22206;BME280;11272;50.104;8.754;2023-05-09T10:51:35;100325.53;;;22.52;57.54
22206;BME280;11272;50.104;8.754;2023-05-09T10:54:12;100318.34;;;22.76;57.11
22206;BME280;11272;50.104;8.754;2023-05-09T10:56:37;100317.81;;;22.84;56.56
22206;BME280;11272;50.104;8.754;2023-05-09T10:59:36;100316.22;;;22.56;56.24
22206;BME280;11272;50.104;8.754;2023-05-09T11:02:10;100311.09;;;22.15;56.72
22206;BME280;11272;50.104;8.754;2023-05-09T11:04:38;100305.56;;;22.04;56.70
22206;BME280;11272;50.104;8.754;2023-05-09T11:07:24;100306.72;;;21.62;56.75
22206;BME280;11272;50.104;8.754;2023-05-09T11:09:52;100308.44;;;20.96;58.09
22206;BME280;11272;50.104;8.754;2023-05-09T11:12:23;100314.03;;;20.52;59.88
22206;BME280;11272;50.104;8.754;2023-05-09T11:14:49;100312.31;;;20.23;62.41
22206;BME280;11272;50.104;8.754;2023-05-09T11:27:27;100282.03;;;20.04;75.51
22206;BME280;11272;50.104;8.754;2023-05-09T11:29:57;100279.41;;;20.59;79.14
22206;BME280;11272;50.104;8.754;2023-05-09T11:32:30;100270.31;;;21.28;84.28
22206;BME280;11272;50.104;8.754;2023-05-09T11:35:11;100264.66;;;21.70;86.78
22206;BME280;11272;50.104;8.754;2023-05-09T11:38:02;100253.09;;;22.06;88.58
22206;BME280;11272;50.104;8.754;2023-05-09T11:40:34;100252.19;;;22.31;90.19
22206;BME280;11272;50.104;8.754;2023-05-09T11:43:01;100250.31;;;22.44;89.58
22206;BME280;11272;50.104;8.754;2023-05-09T11:45:31;100244.38;;;22.39;90.13
22206;BME280;11272;50.104;8.754;2023-05-09T11:47:57;100248.53;;;22.19;88.99
22206;BME280;11272;50.104;8.754;2023-05-09T11:50:25;100250.72;;;21.89;88.34
22206;BME280;11272;50.104;8.754;2023-05-09T11:52:52;100244.84;;;21.70;88.58
22206;BME280;11272;50.104;8.754;2023-05-09T11:55:25;100232.97;;;21.60;88.46
22206;BME280;11272;50.104;8.754;2023-05-09T11:57:54;100232.06;;;21.34;89.44
22206;BME280;11272;50.104;8.754;2023-05-09T12:00:22;100231.44;;;21.30;91.35
22206;BME280;11272;50.104;8.754;2023-05-09T12:02:48;100224.94;;;21.58;92.13
22206;BME280;11272;50.104;8.754;2023-05-09T12:05:18;100220.31;;;21.98;93.84
22206;BME280;11272;50.104;8.754;2023-05-09T12:07:44;100206.78;;;22.47;91.68
22206;BME280;11272;50.104;8.754;2023-05-09T12:10:12;100208.75;;;22.69;90.36
22206;BME280;11272;50.104;8.754;2023-05-09T12:12:46;100201.91;;;22.76;89.67
22206;BME280;11272;50.104;8.754;2023-05-09T12:15:13;100200.88;;;22.90;86.32
22206;BME280;11272;50.104;8.754;2023-05-09T12:17:40;100192.63;;;22.67;84.50
22206;BME280;11272;50.104;8.754;2023-05-09T12:20:07;100184.63;;;22.42;84.61
22206;BME280;11272;50.104;8.754;2023-05-09T12:22:35;100194.56;;;22.42;84.62
22206;BME280;11272;50.104;8.754;2023-05-09T12:25:07;100187.34;;;22.30;82.26
22206;BME280;11272;50.104;8.754;2023-05-09T12:27:36;100182.97;;;22.16;82.29
22206;BME280;11272;50.104;8.754;2023-05-09T12:30:06;100180.72;;;22.10;79.89
22206;BME280;11272;50.104;8.754;2023-05-09T12:32:35;100180.84;;;21.96;79.77
22206;BME280;11272;50.104;8.754;2023-05-09T12:35:03;100164.44;;;22.22;80.09
22206;BME280;11272;50.104;8.754;2023-05-09T12:37:30;100160.56;;;22.74;79.75
22206;BME280;11272;50.104;8.754;2023-05-09T12:40:09;100154.16;;;23.10;77.03
22206;BME280;11272;50.104;8.754;2023-05-09T12:42:44;100148.34;;;23.03;76.55
22206;BME280;11272;50.104;8.754;2023-05-09T12:45:10;100145.06;;;23.11;75.42
22206;BME280;11272;50.104;8.754;2023-05-09T12:47:36;100138.78;;;23.11;74.22
22206;BME280;11272;50.104;8.754;2023-05-09T12:50:10;100137.41;;;23.05;73.34
22206;BME280;11272;50.104;8.754;2023-05-09T12:52:41;100133.22;;;23.01;72.14
22206;BME280;11272;50.104;8.754;2023-05-09T12:55:08;100128.72;;;22.89;71.16
22206;BME280;11272;50.104;8.754;2023-05-09T12:57:35;100111.22;;;22.82;70.68
22206;BME280;11272;50.104;8.754;2023-05-09T13:00:04;100114.72;;;22.95;69.87
22206;BME280;11272;50.104;8.754;2023-05-09T13:02:35;100110.56;;;23.24;69.39
22206;BME280;11272;50.104;8.754;2023-05-09T13:05:27;100104.22;;;23.92;68.86
22206;BME280;11272;50.104;8.754;2023-05-09T13:07:58;100108.16;;;24.42;67.73
22206;BME280;11272;50.104;8.754;2023-05-09T13:10:26;100095.13;;;24.68;66.46
22206;BME280;11272;50.104;8.754;2023-05-09T13:12:55;100089.28;;;24.72;65.41
22206;BME280;11272;50.104;8.754;2023-05-09T13:15:22;100083.53;;;24.66;64.64
22206;BME280;11272;50.104;8.754;2023-05-09T13:17:53;100075.63;;;24.63;64.24
22206;BME280;11272;50.104;8.754;2023-05-09T13:20:21;100072.72;;;24.55;63.95
22206;BME280;11272;50.104;8.754;2023-05-09T13:22:46;100070.38;;;24.50;63.19